Time;durP1;ratioP1;P1;durP2;ratioP2;P2;SDS_P1;SDS_P2;PMS_P1;PMS_P2;Temp;Humidity;BMP_temperature;BMP_pressure;BME280_temperature;BME280_humidity;BME280_pressure;Samples;Min_cycle;Max_cycle;Signal;HPM_P1;HPM_P2
2023/01/07 00:02:11;;;;;;;4.13;3.45;;;;;;;10.05;72.32;97195.22;6072710;23;20023;-81
2023/01/07 00:04:39;;;;;;;4.45;3.28;;;;;;;10.05;71.69;97191.81;6071514;23;20026;-81
2023/01/07 00:07:07;;;;;;;4.07;3.65;;;;;;;10.04;71.89;97190.19;6070512;23;20023;-81
2023/01/07 00:09:37;;;;;;;4.03;2.90;;;;;;;10.03;71.91;97188.56;6071599;23;20023;-81
2023/01/07 00:12:06;;;;;;;3.25;2.95;;;;;;;10.03;71.72;97183.34;6071641;23;20101;-80
2023/01/07 00:14:34;;;;;;;3.60;3.00;;;;;;;10.02;72.22;97185.13;6071139;23;20019;-81
2023/01/07 00:17:01;;;;;;;3.17;2.88;;;;;;;10.04;72.57;97187.59;6072156;23;20019;-81
2023/01/07 00:19:29;;;;;;;5.53;3.50;;;;;;;10.03;72.28;97178.94;6071169;23;20050;-81
2023/01/07 00:21:56;;;;;;;7.63;4.10;;;;;;;10.05;72.06;97184.81;6071442;23;20019;-80
2023/01/07 00:24:24;;;;;;;3.97;3.53;;;;;;;10.03;71.68;97176.31;6071638;23;20340;-81
2023/01/07 00:26:51;;;;;;;3.55;3.10;;;;;;;10.03;71.62;97172.91;6071022;23;20019;-81
2023/01/07 00:29:20;;;;;;;3.00;2.47;;;;;;;10.02;72.13;97169.50;6070628;23;20019;-81
2023/01/07 00:31:48;;;;;;;5.07;3.22;;;;;;;10.04;71.98;97174.56;6070737;23;20075;-81
2023/01/07 00:34:16;;;;;;;4.70;3.47;;;;;;;10.06;71.79;97170.00;6070969;23;20015;-81
2023/01/07 00:36:46;;;;;;;4.15;3.10;;;;;;;10.08;72.04;97173.25;6070719;23;20019;-81
2023/01/07 00:39:16;;;;;;;4.50;3.45;;;;;;;10.10;72.12;97171.28;6071028;23;20019;-81
2023/01/07 00:42:53;;;;;;;4.18;2.67;;;;;;;10.09;71.66;97165.25;6071202;23;20022;-81
2023/01/07 00:44:36;;;;;;;5.00;3.38;;;;;;;10.09;71.62;97162.66;6070396;23;20015;-80
2023/01/07 00:47:05;;;;;;;4.90;3.35;;;;;;;10.09;71.87;97151.41;6070514;23;20023;-80
2023/01/07 00:49:33;;;;;;;4.18;3.40;;;;;;;10.06;71.43;97151.75;6070251;23;20479;-81
2023/01/07 00:52:01;;;;;;;5.32;3.92;;;;;;;10.05;71.65;97155.31;6070604;23;20027;-81
2023/01/07 00:54:28;;;;;;;6.15;3.78;;;;;;;10.04;71.49;97159.72;6071266;23;20023;-81
2023/01/07 00:56:56;;;;;;;5.22;3.67;;;;;;;10.01;71.50;97151.41;6071320;23;20019;-81
2023/01/07 00:59:24;;;;;;;3.58;2.72;;;;;;;10.00;71.54;97150.59;6077781;23;20055;-81
2023/01/07 01:01:53;;;;;;;3.55;2.55;;;;;;;9.98;71.84;97147.34;6078635;23;20098;-81
2023/01/07 01:04:20;;;;;;;3.40;2.88;;;;;;;9.98;71.63;97146.53;6074351;23;20046;-81
2023/01/07 01:06:48;;;;;;;3.50;2.83;;;;;;;9.98;71.53;97149.16;6072246;23;20023;-81
2023/01/07 01:09:16;;;;;;;3.33;2.50;;;;;;;9.97;71.53;97145.72;6071399;23;20462;-81
2023/01/07 01:11:43;;;;;;;3.33;2.90;;;;;;;9.96;71.52;97151.09;6071793;23;20023;-81
2023/01/07 01:14:11;;;;;;;3.10;2.80;;;;;;;9.96;71.97;97156.31;6071878;23;20023;-81
2023/01/07 01:16:39;;;;;;;3.40;2.92;;;;;;;9.96;71.96;97151.91;6071242;23;20019;-81
2023/01/07 01:19:08;;;;;;;4.60;3.25;;;;;;;9.96;71.70;97158.91;6070242;23;20021;-81
2023/01/07 01:21:36;;;;;;;4.43;3.70;;;;;;;9.96;71.76;97153.72;6071278;23;20018;-81
2023/01/07 01:24:04;;;;;;;4.25;3.38;;;;;;;9.95;71.79;97159.88;6071251;23;20019;-81
2023/01/07 01:26:32;;;;;;;6.53;3.45;;;;;;;9.95;71.77;97149.47;6072126;23;20543;-81
2023/01/07 01:29:00;;;;;;;4.57;3.35;;;;;;;9.96;72.00;97148.50;6071199;23;20019;-81
2023/01/07 01:31:27;;;;;;;3.55;2.60;;;;;;;9.97;71.83;97157.94;6070920;23;20023;-81
2023/01/07 01:33:56;;;;;;;2.67;2.40;;;;;;;9.96;71.66;97151.09;6070923;23;20050;-81
2023/01/07 01:36:25;;;;;;;2.65;2.05;;;;;;;9.93;71.51;97149.66;6071318;23;20015;-81
2023/01/07 01:38:53;;;;;;;3.17;2.10;;;;;;;9.92;71.64;97144.59;6070113;23;20057;-81
2023/01/07 01:41:21;;;;;;;3.20;1.88;;;;;;;9.92;71.62;97147.19;6070946;23;20023;-81
2023/01/07 01:43:49;;;;;;;1.83;1.70;;;;;;;9.88;71.69;97150.13;6071230;23;20111;-80
2023/01/07 01:46:20;;;;;;;2.13;1.80;;;;;;;9.88;71.32;97151.91;6071255;23;20097;-81
2023/01/07 01:48:52;;;;;;;3.10;1.60;;;;;;;9.87;71.44;97145.88;6086445;23;20078;-81
2023/01/07 01:51:23;;;;;;;2.08;1.80;;;;;;;9.90;72.18;97144.75;6089801;23;20023;-81
2023/01/07 01:53:53;;;;;;;5.57;3.20;;;;;;;9.95;72.34;97146.84;6075221;23;20107;-81
2023/01/07 01:56:26;;;;;;;6.53;4.35;;;;;;;10.00;72.80;97147.19;6072817;23;20062;-81
2023/01/07 01:58:58;;;;;;;6.70;3.75;;;;;;;10.02;71.73;97142.63;6070349;23;20066;-81
2023/01/07 02:01:27;;;;;;;2.97;2.45;;;;;;;10.01;71.54;97138.38;6071523;23;20015;-81
2023/01/07 02:03:56;;;;;;;4.05;2.33;;;;;;;10.00;71.26;97136.75;6071438;23;20019;-81
2023/01/07 02:06:26;;;;;;;4.32;3.35;;;;;;;9.98;71.20;97141.31;6072559;23;20019;-81
2023/01/07 02:08:55;;;;;;;3.55;2.42;;;;;;;9.95;71.32;97131.22;6075543;23;20050;-81
2023/01/07 02:11:33;;;;;;;2.70;2.50;;;;;;;9.93;71.04;97133.16;6075365;23;20083;-80
2023/01/07 02:14:17;;;;;;;4.07;1.95;;;;;;;9.89;70.70;97133.50;6072706;23;20364;-81
2023/01/07 02:16:56;;;;;;;2.50;1.95;;;;;;;9.87;70.95;97132.84;6070966;23;20025;-81
2023/01/07 02:19:59;;;;;;;1.85;1.70;;;;;;;9.85;71.14;97134.81;6070735;23;20101;-81
2023/01/07 02:22:38;;;;;;;;;;;;;;;9.87;71.24;97129.44;6071850;23;20027;-81
2023/01/07 02:25:30;;;;;;;2.75;1.98;;;;;;;9.86;71.24;97127.81;6070205;23;19917;-81
2023/01/07 02:28:19;;;;;;;1.38;1.27;;;;;;;9.85;70.34;97116.56;6070090;23;20022;-81
2023/01/07 02:31:19;;;;;;;1.98;1.77;;;;;;;9.89;69.21;97117.06;6066196;23;20183;-81
2023/01/07 02:33:55;;;;;;;2.40;2.15;;;;;;;9.94;70.61;97111.34;6070090;23;20041;-81
2023/01/07 02:36:32;;;;;;;2.13;1.55;;;;;;;9.98;70.28;97110.84;6070523;23;20543;-81
2023/01/07 02:39:15;;;;;;;3.40;1.58;;;;;;;10.00;70.05;97110.72;6071303;23;20019;-81
2023/01/07 02:41:50;;;;;;;1.45;1.23;;;;;;;10.03;69.87;97107.75;6070499;23;20469;-81
2023/01/07 02:44:26;;;;;;;1.35;1.10;;;;;;;10.04;69.48;97105.00;6071550;23;20102;-81
2023/01/07 02:47:00;;;;;;;1.25;1.00;;;;;;;10.06;69.47;97089.19;6070012;23;20022;-80
2023/01/07 02:49:29;;;;;;;1.27;1.17;;;;;;;10.05;68.34;97085.75;6069751;23;20019;-75
2023/01/07 02:51:56;;;;;;;1.90;1.70;;;;;;;10.04;68.20;97080.72;6074418;23;20566;-75
2023/01/07 02:54:28;;;;;;;1.30;1.20;;;;;;;10.02;68.19;97080.06;6087986;23;20026;-75
2023/01/07 02:57:25;;;;;;;4.30;2.58;;;;;;;10.01;68.15;97075.81;6088235;23;20057;-75
2023/01/07 03:00:13;;;;;;;4.18;3.03;;;;;;;9.96;68.16;97081.53;6068233;23;20029;-75
2023/01/07 03:03:01;;;;;;;4.95;3.42;;;;;;;9.92;68.60;97069.81;6068346;23;20097;-75
2023/01/07 03:05:43;;;;;;;9.32;6.03;;;;;;;9.90;68.58;97064.78;6067306;23;20448;-78
2023/01/07 03:08:35;;;;;;;7.18;4.47;;;;;;;9.87;69.03;97059.91;6067392;23;20055;-78
2023/01/07 03:11:05;;;;;;;4.57;2.92;;;;;;;9.84;69.07;97072.47;6067825;23;20026;-78
2023/01/07 03:13:38;;;;;;;4.72;2.67;;;;;;;9.81;69.13;97067.56;6067456;23;20033;-78
2023/01/07 03:16:10;;;;;;;2.67;2.33;;;;;;;9.78;69.42;97062.69;6070179;23;20043;-78
2023/01/07 03:18:43;;;;;;;3.72;3.35;;;;;;;9.74;69.57;97054.38;6070605;23;20408;-77
2023/01/07 03:21:15;;;;;;;5.65;3.05;;;;;;;9.72;69.38;97058.94;6068775;23;20359;-77
2023/01/07 03:23:45;;;;;;;;;;;;;;;9.73;69.96;97052.78;6068380;23;20467;-78
2023/01/07 03:26:15;;;;;;;2.38;2.13;;;;;;;9.68;69.77;97047.22;6067809;23;20000;-78
2023/01/07 03:28:43;;;;;;;1.73;1.63;;;;;;;9.63;69.80;97045.13;6067195;23;20019;-78
2023/01/07 03:31:15;;;;;;;4.22;2.47;;;;;;;9.62;69.92;97042.66;6068023;23;20037;-78
2023/01/07 03:33:51;;;;;;;2.47;2.20;;;;;;;9.64;70.27;97043.31;6067477;23;20482;-78
2023/01/07 03:36:25;;;;;;;3.65;2.40;;;;;;;9.67;70.32;97030.78;6067538;23;20054;-78
2023/01/07 03:38:54;;;;;;;3.03;2.30;;;;;;;9.69;69.97;97030.63;6067197;23;20114;-77
2023/01/07 03:44:04;;;;;;;5.13;2.80;;;;;;;9.68;69.92;97016.78;6022002;23;20027;-78
2023/01/07 03:46:33;;;;;;;4.00;2.40;;;;;;;9.68;70.21;97021.19;6068902;23;20475;-78
2023/01/07 03:49:00;;;;;;;3.67;3.20;;;;;;;9.70;70.23;97014.00;6068713;23;20029;-78
2023/01/07 03:51:29;;;;;;;3.33;2.67;;;;;;;9.71;69.95;97015.66;6069557;23;20023;-78
2023/01/07 03:53:57;;;;;;;7.47;3.53;;;;;;;9.71;70.36;97015.66;6069813;23;20109;-78
2023/01/07 03:56:24;;;;;;;5.15;3.88;;;;;;;9.72;70.30;97012.06;6069691;23;20029;-78
2023/01/07 03:58:51;;;;;;;3.90;3.53;;;;;;;9.72;70.36;97009.44;6069061;23;20034;-78
2023/01/07 04:01:19;;;;;;;6.47;4.53;;;;;;;9.73;70.13;97008.47;6068996;23;20102;-78
2023/01/07 04:03:47;;;;;;;6.28;4.65;;;;;;;9.72;70.40;96993.81;6069294;23;20033;-78
2023/01/07 04:06:14;;;;;;;5.82;5.22;;;;;;;9.70;70.45;96993.16;6069490;23;20102;-78
2023/01/07 04:08:43;;;;;;;8.43;5.50;;;;;;;9.70;70.69;97003.59;6068157;23;20023;-77
2023/01/07 04:11:11;;;;;;;6.35;5.75;;;;;;;9.72;71.07;96991.22;6069056;23;20027;-78
2023/01/07 04:13:38;;;;;;;6.50;5.80;;;;;;;9.75;70.97;96995.28;6068453;23;20019;-78
2023/01/07 04:16:06;;;;;;;7.68;6.88;;;;;;;9.76;70.99;96989.91;6068581;23;20018;-78
2023/01/07 04:18:34;;;;;;;10.07;6.30;;;;;;;9.78;70.77;96987.13;6068745;23;20023;-77
2023/01/07 04:21:01;;;;;;;7.10;6.13;;;;;;;9.77;70.85;96982.91;6071295;23;20107;-78
2023/01/07 04:23:29;;;;;;;6.97;6.13;;;;;;;9.76;70.99;96982.09;6068550;23;20019;-78
2023/01/07 04:25:58;;;;;;;9.85;6.75;;;;;;;9.78;70.88;96981.94;6069106;23;20102;-78
2023/01/07 04:28:26;;;;;;;6.22;5.63;;;;;;;9.77;70.74;96981.09;6068947;23;20029;-78
2023/01/07 04:30:53;;;;;;;7.25;6.55;;;;;;;9.75;70.77;96977.88;6068432;23;20019;-78
2023/01/07 04:33:21;;;;;;;8.15;6.47;;;;;;;9.72;70.77;96986.00;6069152;23;20027;-78
2023/01/07 04:35:49;;;;;;;7.05;6.35;;;;;;;9.66;70.86;96981.44;6069067;23;20027;-78
2023/01/07 04:38:16;;;;;;;6.95;6.25;;;;;;;9.59;71.00;96985.72;6068579;23;20035;-78
2023/01/07 04:40:44;;;;;;;7.93;6.18;;;;;;;9.55;71.01;96980.00;6068831;23;20093;-78
2023/01/07 04:43:12;;;;;;;6.60;5.85;;;;;;;9.52;71.24;96977.75;6068710;23;20030;-78
2023/01/07 04:45:40;;;;;;;6.13;5.53;;;;;;;9.50;71.17;96971.88;6068751;23;20027;-78
2023/01/07 04:48:08;;;;;;;7.55;6.00;;;;;;;9.47;71.45;96973.03;6068519;23;20027;-78
2023/01/07 04:50:35;;;;;;;6.88;6.07;;;;;;;9.46;71.43;96971.41;6068260;23;20034;-78
2023/01/07 04:53:03;;;;;;;7.43;6.35;;;;;;;9.46;71.11;96968.78;6068521;23;20101;-78
2023/01/07 04:55:30;;;;;;;7.38;6.60;;;;;;;9.45;71.44;96975.00;6068364;23;20298;-78
2023/01/07 04:57:58;;;;;;;6.70;5.90;;;;;;;9.45;71.47;96967.19;6068016;23;20023;-78
2023/01/07 05:00:27;;;;;;;6.53;5.93;;;;;;;9.44;71.67;96968.13;6068979;23;20415;-78
2023/01/07 05:02:55;;;;;;;6.97;6.28;;;;;;;9.45;71.49;96956.75;6068474;23;20023;-78
2023/01/07 05:05:22;;;;;;;6.95;5.80;;;;;;;9.47;71.74;96951.41;6068666;23;20057;-78
2023/01/07 05:07:50;;;;;;;7.00;5.43;;;;;;;9.50;71.96;96943.25;6068028;23;20443;-78
2023/01/07 05:10:17;;;;;;;9.00;5.80;;;;;;;9.54;72.01;96947.13;6068274;23;20237;-78
2023/01/07 05:12:45;;;;;;;6.53;5.85;;;;;;;9.59;71.94;96946.63;6068075;23;20030;-78
2023/01/07 05:15:12;;;;;;;7.95;5.70;;;;;;;9.61;71.45;96942.88;6068520;23;20023;-78
2023/01/07 05:17:41;;;;;;;6.70;6.00;;;;;;;9.62;71.27;96943.69;6068407;23;20023;-78
2023/01/07 05:20:10;;;;;;;7.53;5.85;;;;;;;9.63;71.33;96942.72;6068530;23;20054;-78
2023/01/07 05:22:37;;;;;;;7.38;6.20;;;;;;;9.66;71.18;96937.16;6068128;23;20035;-77
2023/01/07 05:25:05;;;;;;;8.05;6.45;;;;;;;9.67;71.28;96939.63;6068218;23;20031;-78
2023/01/07 05:27:33;;;;;;;7.47;6.43;;;;;;;9.68;71.42;96941.22;6068344;23;20023;-78
2023/01/07 05:30:00;;;;;;;6.05;5.47;;;;;;;9.71;71.42;96929.69;6067999;23;20105;-78
2023/01/07 05:32:28;;;;;;;6.80;6.15;;;;;;;9.74;71.31;96931.94;6068383;23;20027;-77
2023/01/07 05:34:57;;;;;;;5.80;5.18;;;;;;;9.75;71.66;96928.38;6069054;23;20022;-78
2023/01/07 05:37:25;;;;;;;6.53;5.85;;;;;;;9.78;71.45;96917.59;6068418;23;20494;-78
2023/01/07 05:39:52;;;;;;;7.18;5.50;;;;;;;9.79;70.79;96924.41;6068969;23;20106;-78
2023/01/07 05:42:20;;;;;;;6.78;4.90;;;;;;;9.78;70.97;96922.81;6068196;23;20036;-78
2023/01/07 05:44:47;;;;;;;6.93;5.63;;;;;;;9.78;71.06;96922.81;6068463;23;20045;-78
2023/01/07 05:47:15;;;;;;;6.20;5.45;;;;;;;9.79;71.22;96919.22;6068089;23;20101;-78
2023/01/07 05:49:42;;;;;;;6.43;5.80;;;;;;;9.81;70.92;96912.03;6068123;23;20101;-78
2023/01/07 05:52:11;;;;;;;6.75;6.03;;;;;;;9.81;70.88;96919.84;6069323;23;20030;-77
2023/01/07 05:54:39;;;;;;;6.82;6.13;;;;;;;9.81;70.68;96912.03;6069428;23;20031;-78
2023/01/07 05:57:06;;;;;;;7.72;6.53;;;;;;;9.80;70.52;96910.44;6069263;23;20030;-78
2023/01/07 05:59:35;;;;;;;7.28;6.53;;;;;;;9.78;70.86;96915.00;6067599;23;20029;-78
2023/01/07 06:02:02;;;;;;;8.13;7.05;;;;;;;9.78;70.50;96914.19;6068059;23;20029;-78
2023/01/07 06:04:30;;;;;;;7.93;7.13;;;;;;;9.75;70.46;96904.94;6068017;23;20023;-78
2023/01/07 06:06:57;;;;;;;10.95;7.00;;;;;;;9.75;70.66;96902.31;6068058;23;20022;-78
2023/01/07 06:09:28;;;;;;;7.93;7.13;;;;;;;9.76;71.02;96903.94;6067581;23;20027;-78
2023/01/07 06:11:56;;;;;;;9.07;6.95;;;;;;;9.77;71.20;96910.75;6068224;23;20022;-78
2023/01/07 06:14:23;;;;;;;8.48;7.57;;;;;;;9.79;71.06;96911.41;6068433;23;20027;-78
2023/01/07 06:16:51;;;;;;;8.15;7.38;;;;;;;9.79;70.88;96903.59;6081692;23;20102;-78
2023/01/07 06:19:18;;;;;;;9.40;7.70;;;;;;;9.78;70.66;96904.56;6080477;23;20033;-78
2023/01/07 06:21:46;;;;;;;8.50;7.53;;;;;;;9.78;70.90;96896.75;6075942;23;20018;-78
2023/01/07 06:24:13;;;;;;;8.27;7.45;;;;;;;9.77;70.81;96897.72;6068313;23;20114;-78
2023/01/07 06:26:42;;;;;;;9.13;7.68;;;;;;;9.78;70.96;96901.97;6068023;23;20355;-78
2023/01/07 06:29:10;;;;;;;9.63;8.60;;;;;;;9.78;70.73;96896.75;6067799;23;20101;-78
2023/01/07 06:31:37;;;;;;;8.85;8.05;;;;;;;9.78;70.86;96895.97;6080352;23;20023;-76
2023/01/07 06:34:05;;;;;;;8.93;8.02;;;;;;;9.77;70.61;96891.72;6094121;23;20027;-76
2023/01/07 06:36:32;;;;;;;12.05;9.35;;;;;;;9.73;70.30;96888.66;6092773;23;20037;-78
2023/01/07 06:39:00;;;;;;;12.25;10.30;;;;;;;9.70;70.61;96889.78;6067139;23;20494;-78
2023/01/07 06:41:27;;;;;;;10.13;8.68;;;;;;;9.69;71.03;96888.16;6068085;23;20023;-78
2023/01/07 06:43:56;;;;;;;13.18;10.23;;;;;;;9.68;70.54;96889.13;6067766;23;20029;-77
2023/01/07 06:46:24;;;;;;;13.13;9.65;;;;;;;9.65;70.88;96880.84;6068388;23;20027;-77
2023/01/07 06:48:51;;;;;;;13.73;9.80;;;;;;;9.66;70.96;96883.31;6069414;23;20023;-77
2023/01/07 06:51:19;;;;;;;15.02;9.65;;;;;;;9.65;70.69;96886.06;6067953;23;20030;-78
2023/01/07 06:53:46;;;;;;;16.85;11.00;;;;;;;9.64;70.74;96876.63;6068295;23;20023;-77
2023/01/07 06:56:14;;;;;;;17.40;11.18;;;;;;;9.64;70.80;96874.00;6067841;23;20023;-78
2023/01/07 06:58:41;;;;;;;17.00;12.23;;;;;;;9.65;70.74;96876.47;6067362;23;20494;-78
2023/01/07 07:01:11;;;;;;;15.23;10.82;;;;;;;9.64;70.56;96869.63;6068081;23;20081;-78
2023/01/07 07:03:39;;;;;;;13.13;10.27;;;;;;;9.61;70.56;96872.56;6068009;23;20508;-77
2023/01/07 07:06:06;;;;;;;10.98;9.60;;;;;;;9.61;70.57;96871.75;6067980;23;20101;-78
2023/01/07 07:08:34;;;;;;;11.40;9.63;;;;;;;9.61;70.58;96869.16;6067321;23;20039;-78
2023/01/07 07:11:02;;;;;;;10.75;9.40;;;;;;;9.60;70.52;96867.50;6067881;23;20057;-78
2023/01/07 07:13:29;;;;;;;12.25;10.02;;;;;;;9.57;70.39;96862.66;6067907;23;20049;-78
2023/01/07 07:15:57;;;;;;;11.93;9.20;;;;;;;9.52;70.65;96859.75;6067778;23;20026;-77
2023/01/07 07:18:26;;;;;;;10.95;9.25;;;;;;;9.52;71.23;96867.56;6068444;23;20019;-79
2023/01/07 07:20:54;;;;;;;10.48;9.13;;;;;;;9.52;71.32;96864.97;6069457;23;20084;-78
2023/01/07 07:23:21;;;;;;;10.50;8.95;;;;;;;9.52;71.21;96849.34;6069648;23;20045;-78
2023/01/07 07:25:49;;;;;;;10.63;8.68;;;;;;;9.53;71.17;96851.75;6069734;23;20023;-78
2023/01/07 07:28:16;;;;;;;9.43;8.45;;;;;;;9.51;71.31;96851.13;6069563;23;20027;-79
2023/01/07 07:30:44;;;;;;;11.65;9.32;;;;;;;9.52;71.05;96852.75;6069368;23;20034;-79
2023/01/07 07:33:17;;;;;;;10.38;9.02;;;;;;;9.52;71.00;96851.94;6069158;23;20074;-78
2023/01/07 07:35:46;;;;;;;12.25;9.98;;;;;;;9.51;71.31;96855.50;6069488;23;20022;-78
2023/01/07 07:38:16;;;;;;;12.25;9.90;;;;;;;9.49;71.02;96850.50;6068852;23;20019;-79
2023/01/07 07:40:44;;;;;;;12.98;9.60;;;;;;;9.47;71.26;96850.66;6069254;23;20054;-78
2023/01/07 07:43:12;;;;;;;12.48;9.85;;;;;;;9.46;71.17;96846.41;6075782;23;20027;-79
2023/01/07 07:45:40;;;;;;;12.55;10.85;;;;;;;9.45;70.88;96836.19;6078439;23;20411;-77
2023/01/07 07:48:09;;;;;;;14.85;11.38;;;;;;;9.40;70.86;96841.91;6075588;23;20027;-78
2023/01/07 07:50:36;;;;;;;13.00;10.32;;;;;;;9.38;71.12;96833.44;6070768;23;20027;-79
2023/01/07 07:53:08;;;;;;;12.57;10.55;;;;;;;9.37;71.17;96833.59;6069611;23;20102;-79
2023/01/07 07:55:36;;;;;;;13.93;11.40;;;;;;;9.36;71.24;96830.19;6068911;23;20026;-79
2023/01/07 07:58:04;;;;;;;13.00;11.10;;;;;;;9.36;71.18;96834.56;6068810;23;20023;-77
2023/01/07 08:00:32;;;;;;;15.70;12.07;;;;;;;9.35;71.08;96838.97;6069388;23;20023;-78
2023/01/07 08:03:00;;;;;;;16.15;12.65;;;;;;;9.35;71.39;96844.16;6069313;23;20062;-78
2023/01/07 08:05:28;;;;;;;14.50;11.10;;;;;;;9.35;71.29;96833.75;6068598;23;20490;-79
2023/01/07 08:07:57;;;;;;;15.60;11.95;;;;;;;9.37;71.24;96836.19;6068648;23;20471;-79
2023/01/07 08:10:27;;;;;;;13.43;10.98;;;;;;;9.37;71.37;96821.38;6068693;23;20065;-77
2023/01/07 08:12:55;;;;;;;14.10;10.63;;;;;;;9.37;71.16;96826.59;6070818;23;20030;-78
2023/01/07 08:15:22;;;;;;;13.88;11.52;;;;;;;9.38;71.20;96830.00;6078868;23;20029;-79
2023/01/07 08:17:56;;;;;;;15.15;11.30;;;;;;;9.36;70.96;96824.97;6069002;23;20029;-79
2023/01/07 08:20:24;;;;;;;15.25;11.45;;;;;;;9.35;71.28;96828.56;6069050;23;20033;-79
2023/01/07 08:22:52;;;;;;;14.30;11.52;;;;;;;9.37;71.04;96825.78;6069327;23;20078;-78
2023/01/07 08:25:20;;;;;;;13.15;10.90;;;;;;;9.34;70.75;96821.72;6069207;23;20026;-78
2023/01/07 08:27:49;;;;;;;12.40;10.43;;;;;;;9.33;70.98;96825.31;6075558;23;20058;-78
2023/01/07 08:30:17;;;;;;;13.43;11.18;;;;;;;9.33;70.76;96822.69;6068848;23;20030;-78
2023/01/07 08:32:44;;;;;;;14.40;11.77;;;;;;;9.34;70.66;96820.94;6068539;23;20027;-79
2023/01/07 08:35:12;;;;;;;12.57;10.50;;;;;;;9.35;71.16;96818.13;6068666;23;20475;-79
2023/01/07 08:37:39;;;;;;;13.52;11.43;;;;;;;9.38;71.11;96822.19;6068864;23;20084;-78
2023/01/07 08:40:08;;;;;;;15.07;10.43;;;;;;;9.40;71.15;96826.28;6068119;23;20019;-79
2023/01/07 08:42:36;;;;;;;12.63;10.90;;;;;;;9.43;71.46;96819.91;6068642;23;20023;-78
2023/01/07 08:45:07;;;;;;;14.52;11.38;;;;;;;9.45;70.94;96820.56;6068845;23;20484;-79
2023/01/07 08:47:35;;;;;;;13.43;11.48;;;;;;;9.44;70.97;96822.31;6068442;23;20486;-79
2023/01/07 08:50:03;;;;;;;12.57;11.23;;;;;;;9.45;71.42;96818.75;6068136;23;20054;-79
2023/01/07 08:52:30;;;;;;;15.20;11.10;;;;;;;9.48;70.77;96815.00;6068837;23;20023;-78
2023/01/07 08:54:58;;;;;;;15.77;11.32;;;;;;;9.47;70.81;96806.38;6068657;23;20026;-79
2023/01/07 08:57:25;;;;;;;11.93;10.30;;;;;;;9.48;70.70;96797.56;6068886;23;20033;-79
2023/01/07 08:59:53;;;;;;;14.60;11.02;;;;;;;9.49;70.87;96804.44;6067894;23;20030;-79
2023/01/07 09:02:21;;;;;;;13.23;10.50;;;;;;;9.50;70.64;96800.03;6068265;23;20086;-79
2023/01/07 09:04:49;;;;;;;21.15;10.18;;;;;;;9.54;70.66;96790.09;6068223;23;20027;-80
2023/01/07 09:07:29;;;;;;;11.75;9.20;;;;;;;9.56;70.38;96788.94;5130960;27;20380;-80
2023/01/07 09:09:57;;;;;;;9.98;8.55;;;;;;;9.58;70.08;96780.94;5130258;28;20389;-80
2023/01/07 09:12:24;;;;;;;13.90;9.18;;;;;;;9.60;70.21;96778.97;5130908;28;20047;-80
2023/01/07 09:14:53;;;;;;;10.73;8.70;;;;;;;9.63;69.72;96791.66;5126250;27;20420;-80
2023/01/07 09:17:21;;;;;;;8.48;7.57;;;;;;;9.64;69.31;96790.66;5109369;28;20048;-80
2023/01/07 09:19:50;;;;;;;10.23;8.73;;;;;;;9.66;69.92;96788.69;5107894;28;20126;-81
2023/01/07 09:22:18;;;;;;;8.45;7.15;;;;;;;9.69;69.26;96788.38;5109876;28;20052;-78
2023/01/07 09:24:47;;;;;;;8.55;7.28;;;;;;;9.71;69.43;96786.41;5109629;28;20058;-77
2023/01/07 09:27:15;;;;;;;8.43;7.18;;;;;;;9.74;69.28;96786.06;5109279;28;20052;-81
2023/01/07 09:29:43;;;;;;;9.98;7.60;;;;;;;9.76;69.19;96789.31;5109187;28;20135;-79
2023/01/07 09:32:10;;;;;;;8.00;6.55;;;;;;;9.77;68.50;96780.50;5109690;28;20052;-79
2023/01/07 09:34:38;;;;;;;7.55;6.32;;;;;;;9.80;69.08;96784.56;5109683;28;20054;-80
2023/01/07 09:37:06;;;;;;;10.43;6.82;;;;;;;9.83;68.91;96779.81;5109591;28;20043;-80
2023/01/07 09:39:34;;;;;;;6.68;5.70;;;;;;;9.87;69.18;96788.91;5109990;28;20052;-79
2023/01/07 09:42:08;;;;;;;5.43;4.93;;;;;;;9.90;67.74;96780.75;5111591;28;20050;-80
2023/01/07 09:44:48;;;;;;;5.72;4.75;;;;;;;9.93;67.29;96782.22;5109604;28;20088;-77
2023/01/07 09:47:20;;;;;;;5.43;4.93;;;;;;;9.95;66.82;96782.00;5109329;28;20048;-80
2023/01/07 09:49:53;;;;;;;5.57;5.07;;;;;;;10.01;66.77;96781.31;5109453;28;20052;-80
2023/01/07 09:52:26;;;;;;;5.53;5.03;;;;;;;10.06;67.52;96781.63;5109340;28;20062;-80
2023/01/07 09:55:01;;;;;;;5.13;4.63;;;;;;;10.13;67.20;96763.50;5109220;28;20051;-80
2023/01/07 09:57:30;;;;;;;5.80;4.80;;;;;;;10.18;66.58;96761.97;5109550;28;20425;-80
2023/01/07 09:59:58;;;;;;;4.95;4.43;;;;;;;10.24;66.30;96750.06;5108701;28;20056;-80
2023/01/07 10:02:39;;;;;;;5.15;4.65;;;;;;;10.31;66.32;96762.22;5109361;28;20048;-80
2023/01/07 10:05:21;;;;;;;4.18;3.78;;;;;;;10.40;64.34;96754.34;5108895;28;20048;-80
2023/01/07 10:07:58;;;;;;;3.20;2.90;;;;;;;10.43;64.48;96744.38;5115827;28;20063;-82
2023/01/07 10:10:53;;;;;;;3.20;2.90;;;;;;;10.49;62.89;96754.09;5116258;27;20052;-80
2023/01/07 10:13:49;;;;;;;3.30;2.90;;;;;;;10.58;63.69;96751.41;5109839;28;20048;-79
2023/01/07 10:16:23;;;;;;;3.70;3.40;;;;;;;10.66;63.05;96748.72;5108871;28;20048;-80
2023/01/07 10:18:58;;;;;;;3.03;2.80;;;;;;;10.75;63.52;96746.84;5095096;28;20052;-79
2023/01/07 10:21:33;;;;;;;2.65;2.45;;;;;;;10.85;62.44;96739.56;5095499;28;20417;-80
2023/01/07 10:24:05;;;;;;;3.47;3.13;;;;;;;10.93;62.17;96745.50;5095487;28;20531;-81
2023/01/07 10:26:37;;;;;;;2.60;2.40;;;;;;;11.01;62.11;96744.59;5094482;28;20052;-80
2023/01/07 10:29:13;;;;;;;3.92;2.50;;;;;;;11.08;61.46;96749.91;5095522;28;20071;-79
2023/01/07 10:31:41;;;;;;;3.35;2.92;;;;;;;11.15;61.26;96750.81;5097590;28;20048;-80
2023/01/07 10:34:14;;;;;;;3.03;2.78;;;;;;;11.21;60.41;96746.66;5096291;28;20048;-82
2023/01/07 10:36:53;;;;;;;3.45;3.15;;;;;;;11.25;60.78;96742.69;5095043;28;20058;-81
2023/01/07 10:39:27;;;;;;;3.33;2.88;;;;;;;11.33;60.35;96743.41;5094998;28;20062;-80
2023/01/07 10:42:02;;;;;;;3.20;2.90;;;;;;;11.41;59.95;96742.47;5095608;28;20417;-81
2023/01/07 10:44:52;;;;;;;3.45;3.15;;;;;;;11.48;59.65;96732.13;5095076;28;20056;-80
2023/01/07 10:47:33;;;;;;;2.75;2.50;;;;;;;11.51;59.91;96727.31;5094956;28;20052;-80
2023/01/07 10:50:21;;;;;;;3.13;2.83;;;;;;;11.55;59.92;96723.34;5093245;28;20048;-80
2023/01/07 10:52:59;;;;;;;3.60;3.05;;;;;;;11.53;58.21;96714.88;5094686;28;20048;-80
2023/01/07 10:55:38;;;;;;;2.92;2.58;;;;;;;11.52;58.87;96702.00;5093837;28;20059;-80
2023/01/07 10:58:10;;;;;;;3.20;2.90;;;;;;;11.50;58.71;96701.38;5094486;28;20066;-80
2023/01/07 11:00:40;;;;;;;3.03;2.60;;;;;;;11.52;60.21;96700.22;5094217;28;20518;-79
2023/01/07 11:03:18;;;;;;;3.80;2.95;;;;;;;11.52;58.18;96696.78;5094356;28;20284;-80
2023/01/07 11:05:48;;;;;;;2.83;2.58;;;;;;;11.51;59.34;96689.94;5093942;28;20079;-81
2023/01/07 11:08:27;;;;;;;2.85;2.50;;;;;;;11.49;58.93;96687.50;5094461;28;20486;-80
2023/01/07 11:10:54;;;;;;;2.40;2.20;;;;;;;11.48;58.78;96678.06;5094449;28;20048;-80
2023/01/07 11:13:29;;;;;;;2.58;2.38;;;;;;;11.48;57.67;96683.28;5094602;28;20138;-78
2023/01/07 11:16:06;;;;;;;3.22;2.58;;;;;;;11.48;58.26;96674.66;5093780;28;20047;-81
2023/01/07 11:18:40;;;;;;;2.90;2.10;;;;;;;11.53;57.74;96667.84;5093877;28;20044;-78
2023/01/07 11:21:08;;;;;;;4.13;2.47;;;;;;;11.57;58.63;96663.09;5096857;28;20135;-80
2023/01/07 11:23:57;;;;;;;2.50;2.00;;;;;;;11.67;58.90;96663.56;5095088;28;20051;-80
2023/01/07 11:26:26;;;;;;;2.92;2.65;;;;;;;11.76;57.87;96672.09;5094209;28;20044;-81
2023/01/07 11:28:55;;;;;;;2.70;2.50;;;;;;;11.83;57.54;96656.47;5093188;28;20051;-81
2023/01/07 11:31:46;;;;;;;2.10;1.90;;;;;;;11.88;57.33;96660.16;5093765;28;20609;-79
2023/01/07 11:34:22;;;;;;;2.75;2.42;;;;;;;11.92;58.16;96653.56;5093818;28;20044;-79
2023/01/07 11:36:51;;;;;;;2.30;2.10;;;;;;;11.97;58.14;96646.97;5093422;28;20494;-78
2023/01/07 11:39:20;;;;;;;2.65;2.45;;;;;;;12.01;57.80;96633.34;5092836;28;20094;-79
2023/01/07 11:41:56;;;;;;;2.55;2.35;;;;;;;12.05;58.25;96644.22;5093887;28;20079;-79
2023/01/07 11:44:25;;;;;;;2.20;2.00;;;;;;;12.05;57.20;96628.53;5093112;28;20135;-80
2023/01/07 11:46:54;;;;;;;3.10;2.72;;;;;;;12.04;56.29;96629.53;5095878;28;20116;-80
2023/01/07 11:49:26;;;;;;;2.70;2.50;;;;;;;12.02;56.27;96628.91;5093517;28;20603;-79
2023/01/07 11:51:54;;;;;;;2.35;2.15;;;;;;;12.03;56.73;96620.09;5093122;28;20139;-79
2023/01/07 11:54:24;;;;;;;2.60;2.40;;;;;;;12.04;56.70;96616.44;5093695;28;20058;-80
2023/01/07 11:56:52;;;;;;;2.72;2.53;;;;;;;12.09;56.49;96614.91;5093712;28;20048;-80